createdAt,value
2022-08-27T00:01:35.528Z,19.20
2022-08-27T00:04:02.677Z,19.30
2022-08-27T00:06:29.470Z,19.40
2022-08-27T00:08:56.197Z,19.60
2022-08-27T00:11:25.351Z,19.50
2022-08-27T00:13:52.815Z,19.30
2022-08-27T00:16:19.984Z,19.40
2022-08-27T00:18:47.964Z,19.40
2022-08-27T00:21:16.508Z,19.50
2022-08-27T00:23:43.739Z,19.50
2022-08-27T00:26:10.739Z,19.40
2022-08-27T00:28:38.079Z,19.30
2022-08-27T00:31:05.331Z,19.30
2022-08-27T00:33:32.323Z,19.30
2022-08-27T00:35:59.541Z,19.30
2022-08-27T00:38:26.583Z,19.30
2022-08-27T00:40:53.528Z,19.40
2022-08-27T00:43:24.912Z,19.30
2022-08-27T00:45:55.557Z,19.30
2022-08-27T00:48:25.153Z,19.20
2022-08-27T00:50:55.302Z,19.30
2022-08-27T00:53:26.388Z,19.40
2022-08-27T00:55:57.924Z,19.40
2022-08-27T00:58:32.252Z,19.40
2022-08-27T01:01:01.227Z,19.60
2022-08-27T01:03:28.598Z,19.50
2022-08-27T01:05:58.626Z,19.60
2022-08-27T01:08:29.328Z,19.60
2022-08-27T01:10:58.363Z,19.50
2022-08-27T01:13:59.307Z,19.60
2022-08-27T01:16:20.708Z,19.70
2022-08-27T01:18:49.158Z,19.60
2022-08-27T01:21:30.066Z,19.50
2022-08-27T01:24:23.929Z,19.50
2022-08-27T01:26:51.394Z,19.30
2022-08-27T01:29:18.893Z,19.20
2022-08-27T01:31:46.124Z,19.10
2022-08-27T01:34:12.813Z,19.00
2022-08-27T01:36:40.098Z,19.00
2022-08-27T01:39:06.973Z,19.10
2022-08-27T01:41:34.416Z,19.10
2022-08-27T01:44:01.085Z,18.90
2022-08-27T01:46:28.778Z,18.90
2022-08-27T01:48:56.149Z,19.10
2022-08-27T01:51:22.879Z,19.00
2022-08-27T01:53:50.830Z,19.00
2022-08-27T01:56:18.152Z,19.00
2022-08-27T01:58:44.923Z,19.00
2022-08-27T02:01:14.367Z,19.10
2022-08-27T02:03:41.760Z,19.10
2022-08-27T02:06:11.257Z,19.00
2022-08-27T02:08:38.170Z,19.10
2022-08-27T02:11:05.208Z,19.20
2022-08-27T02:13:31.940Z,19.10
2022-08-27T02:15:58.736Z,19.00
2022-08-27T02:18:25.523Z,19.00
2022-08-27T02:20:52.224Z,19.10
2022-08-27T02:23:19.276Z,19.10
2022-08-27T02:25:48.807Z,19.10
2022-08-27T02:28:15.767Z,19.10
2022-08-27T02:30:42.496Z,19.10
2022-08-27T02:33:09.475Z,19.10
2022-08-27T02:35:39.867Z,19.00
2022-08-27T02:38:07.946Z,19.10
2022-08-27T02:40:36.045Z,19.20
2022-08-27T02:43:03.353Z,19.20
2022-08-27T02:45:30.104Z,19.20
2022-08-27T02:47:56.867Z,19.20
2022-08-27T02:50:27.356Z,19.20
2022-08-27T02:52:54.886Z,19.30
2022-08-27T02:55:22.518Z,19.30
2022-08-27T02:57:49.587Z,19.20
2022-08-27T03:00:18.742Z,19.20
2022-08-27T03:02:45.775Z,19.20
2022-08-27T03:05:13.882Z,19.20
2022-08-27T03:07:41.306Z,19.20
2022-08-27T03:10:10.090Z,19.10
2022-08-27T03:12:37.181Z,19.10
2022-08-27T03:15:06.363Z,19.20
2022-08-27T03:17:51.603Z,19.20
2022-08-27T03:20:18.812Z,19.20
2022-08-27T03:22:46.314Z,19.30
2022-08-27T03:25:13.639Z,19.30
2022-08-27T03:27:40.799Z,19.10
2022-08-27T03:30:11.810Z,18.90
2022-08-27T03:32:39.176Z,18.80
2022-08-27T03:35:06.442Z,18.90
2022-08-27T03:37:33.177Z,18.90
2022-08-27T03:39:59.952Z,18.90
2022-08-27T03:42:27.181Z,18.90
2022-08-27T03:44:53.915Z,18.80
2022-08-27T03:47:22.500Z,19.00
2022-08-27T03:49:50.076Z,19.20
2022-08-27T03:52:17.297Z,19.30
2022-08-27T03:54:44.127Z,19.20
2022-08-27T03:57:10.964Z,19.30
2022-08-27T03:59:38.060Z,19.40
2022-08-27T04:02:05.261Z,19.20
2022-08-27T04:04:32.601Z,19.20
2022-08-27T04:06:59.884Z,19.30
2022-08-27T04:09:27.255Z,19.10
2022-08-27T04:11:54.712Z,19.10
2022-08-27T04:14:26.806Z,19.20
2022-08-27T04:16:56.191Z,19.30
2022-08-27T04:19:27.334Z,19.40
2022-08-27T04:21:57.942Z,19.40
2022-08-27T04:24:24.906Z,19.40
2022-08-27T04:26:51.623Z,19.20
2022-08-27T04:29:18.340Z,19.20
2022-08-27T04:31:45.311Z,19.10
2022-08-27T04:34:12.022Z,19.10
2022-08-27T04:36:38.722Z,19.40
2022-08-27T04:39:05.498Z,19.40
2022-08-27T04:41:33.431Z,19.40
2022-08-27T04:44:07.993Z,19.30
2022-08-27T04:46:37.986Z,19.20
2022-08-27T04:49:10.131Z,19.20
2022-08-27T04:51:40.006Z,19.30
2022-08-27T04:54:08.191Z,19.30
2022-08-27T04:56:36.189Z,19.30
2022-08-27T04:59:04.894Z,19.20
2022-08-27T05:01:32.084Z,19.30
2022-08-27T05:03:59.198Z,19.50
2022-08-27T05:06:26.871Z,19.50
2022-08-27T05:08:54.388Z,19.60
2022-08-27T05:11:22.529Z,19.60
2022-08-27T05:13:50.208Z,19.70
2022-08-27T05:16:22.351Z,19.60
2022-08-27T05:18:50.920Z,19.50
2022-08-27T05:21:27.327Z,19.40
2022-08-27T05:23:55.486Z,19.40
2022-08-27T05:26:22.765Z,19.30
2022-08-27T05:28:49.669Z,19.50
2022-08-27T05:31:17.499Z,19.40
2022-08-27T05:33:46.145Z,19.50
2022-08-27T05:36:20.459Z,19.60
2022-08-27T05:38:51.402Z,19.70
2022-08-27T05:41:21.504Z,19.70
2022-08-27T05:43:50.349Z,19.70
2022-08-27T05:46:20.265Z,19.70
2022-08-27T05:48:47.934Z,19.80
2022-08-27T05:51:25.257Z,20.00
2022-08-27T05:54:19.173Z,19.90
2022-08-27T05:56:46.841Z,19.70
2022-08-27T05:59:34.786Z,19.80
2022-08-27T06:02:02.554Z,19.90
2022-08-27T06:04:29.878Z,20.10
2022-08-27T06:06:56.679Z,20.10
2022-08-27T06:09:26.570Z,20.20
2022-08-27T06:11:55.478Z,20.30
2022-08-27T06:14:22.450Z,20.40
2022-08-27T06:16:49.223Z,20.40
2022-08-27T06:19:16.658Z,20.20
2022-08-27T06:21:43.614Z,20.30
2022-08-27T06:24:14.467Z,20.20
2022-08-27T06:26:43.574Z,20.10
2022-08-27T06:29:12.726Z,20.00
2022-08-27T06:31:40.555Z,20.10
2022-08-27T06:34:09.385Z,20.20
2022-08-27T06:36:39.948Z,20.10
2022-08-27T06:39:08.123Z,20.10
2022-08-27T06:41:35.069Z,20.00
2022-08-27T06:44:11.303Z,20.10
2022-08-27T06:46:38.718Z,20.20
2022-08-27T06:49:06.241Z,20.30
2022-08-27T06:51:36.518Z,20.30
2022-08-27T06:54:06.612Z,20.00
2022-08-27T06:56:33.590Z,19.90
2022-08-27T06:59:03.911Z,19.90
2022-08-27T07:01:36.638Z,20.00
2022-08-27T07:04:07.242Z,20.10
2022-08-27T07:06:35.549Z,20.30
2022-08-27T07:09:03.058Z,20.60
2022-08-27T07:11:32.304Z,20.70
2022-08-27T07:14:00.115Z,20.80
2022-08-27T07:16:28.554Z,20.70
2022-08-27T07:18:57.355Z,20.50
2022-08-27T07:21:30.606Z,20.40
2022-08-27T07:23:59.637Z,20.50
2022-08-27T07:26:26.994Z,20.50
2022-08-27T07:28:53.775Z,20.50
2022-08-27T07:31:23.009Z,20.40
2022-08-27T07:33:52.372Z,20.50
2022-08-27T07:36:21.274Z,20.60
2022-08-27T07:38:56.715Z,20.50
2022-08-27T07:41:30.582Z,20.50
2022-08-27T07:44:20.423Z,20.80
2022-08-27T07:46:49.025Z,20.90
2022-08-27T07:49:19.799Z,21.00
2022-08-27T07:51:46.877Z,21.30
2022-08-27T07:54:14.322Z,21.30
2022-08-27T07:56:41.089Z,21.30
2022-08-27T07:59:08.383Z,21.40
2022-08-27T08:01:36.357Z,21.30
2022-08-27T08:04:03.867Z,21.30
2022-08-27T08:06:30.834Z,21.20
2022-08-27T08:08:59.676Z,21.20
2022-08-27T08:11:26.413Z,21.20
2022-08-27T08:13:53.149Z,21.20
2022-08-27T08:16:20.883Z,21.40
2022-08-27T08:18:47.621Z,21.30
2022-08-27T08:21:14.878Z,21.60
2022-08-27T08:23:42.822Z,21.60
2022-08-27T08:26:12.334Z,21.50
2022-08-27T08:28:39.983Z,21.60
2022-08-27T08:31:07.731Z,21.70
2022-08-27T08:33:35.459Z,21.90
2022-08-27T08:36:13.409Z,22.10
2022-08-27T08:38:41.773Z,22.30
2022-08-27T08:41:28.031Z,22.40
2022-08-27T08:44:04.775Z,22.30
2022-08-27T08:46:46.578Z,22.50
2022-08-27T08:49:51.560Z,22.50
2022-08-27T08:52:31.198Z,22.40
2022-08-27T08:55:24.011Z,22.40
2022-08-27T08:58:07.257Z,22.50
2022-08-27T09:00:34.102Z,22.60
2022-08-27T09:03:00.836Z,22.30
2022-08-27T09:05:28.052Z,22.40
2022-08-27T09:08:32.940Z,22.30
2022-08-27T09:11:07.187Z,22.20
2022-08-27T09:13:43.264Z,22.20
2022-08-27T09:16:11.388Z,22.40
2022-08-27T09:18:40.903Z,22.60
2022-08-27T09:21:11.119Z,22.40
2022-08-27T09:24:03.338Z,22.40
2022-08-27T09:26:33.897Z,22.60
2022-08-27T09:29:17.019Z,22.70
2022-08-27T09:31:58.873Z,22.70
2022-08-27T09:34:33.578Z,22.50
2022-08-27T09:37:04.465Z,22.50
2022-08-27T09:39:42.109Z,22.50
2022-08-27T09:42:09.183Z,22.70
2022-08-27T09:44:50.276Z,22.90
2022-08-27T09:47:19.899Z,22.90
2022-08-27T09:49:47.421Z,23.00
2022-08-27T09:52:37.669Z,22.80
2022-08-27T09:55:06.876Z,23.00
2022-08-27T09:57:40.349Z,23.00
2022-08-27T10:00:15.222Z,22.80
2022-08-27T10:02:52.768Z,22.50
2022-08-27T10:05:35.570Z,22.40
2022-08-27T10:08:13.558Z,22.30
2022-08-27T10:10:56.009Z,22.20
2022-08-27T10:13:37.351Z,22.30
2022-08-27T10:16:18.672Z,22.50
2022-08-27T10:19:03.249Z,22.70
2022-08-27T10:21:39.356Z,22.80
2022-08-27T10:24:48.306Z,22.80
2022-08-27T10:27:34.135Z,23.00
2022-08-27T10:30:35.966Z,23.00
2022-08-27T10:33:14.904Z,23.00
2022-08-27T10:35:57.326Z,23.10
2022-08-27T10:38:45.545Z,23.00
2022-08-27T10:41:35.178Z,23.20
2022-08-27T10:44:17.285Z,23.10
2022-08-27T10:47:03.343Z,23.10
2022-08-27T10:49:45.327Z,23.20
2022-08-27T10:52:23.825Z,23.30
2022-08-27T10:54:50.455Z,23.20
2022-08-27T10:57:55.547Z,23.20
2022-08-27T11:00:24.901Z,23.30
2022-08-27T11:02:56.294Z,23.40
2022-08-27T11:05:27.230Z,23.40
2022-08-27T11:08:06.266Z,23.40
2022-08-27T11:10:36.283Z,23.50
2022-08-27T11:13:10.166Z,23.70
2022-08-27T11:15:40.518Z,23.70
2022-08-27T11:18:19.324Z,23.80
2022-08-27T11:21:01.602Z,23.90
2022-08-27T11:23:52.326Z,23.90
2022-08-27T11:26:19.037Z,24.10
2022-08-27T11:28:53.703Z,24.10
2022-08-27T11:31:50.000Z,24.30
2022-08-27T11:34:25.136Z,24.40
2022-08-27T11:36:57.703Z,24.50
2022-08-27T11:39:58.508Z,24.80
2022-08-27T11:43:04.484Z,24.90
2022-08-27T11:45:40.250Z,25.30
2022-08-27T11:48:21.838Z,25.40
2022-08-27T11:51:04.506Z,25.50
2022-08-27T11:53:52.042Z,25.50
2022-08-27T11:56:36.725Z,25.60
2022-08-27T11:59:09.405Z,25.70
2022-08-27T12:01:36.169Z,26.00
2022-08-27T12:04:19.844Z,26.10
2022-08-27T12:07:11.945Z,26.30
2022-08-27T12:09:57.651Z,26.50
2022-08-27T12:12:53.049Z,26.70
2022-08-27T12:15:41.085Z,26.80
2022-08-27T12:18:43.815Z,27.00
2022-08-27T12:21:34.109Z,27.10
2022-08-27T12:24:37.855Z,27.10
2022-08-27T12:27:19.898Z,26.80
2022-08-27T12:29:46.517Z,26.10
2022-08-27T12:32:35.960Z,25.70
2022-08-27T12:35:19.594Z,25.70
2022-08-27T12:37:57.149Z,25.70
2022-08-27T12:40:30.680Z,25.80
2022-08-27T12:43:17.578Z,25.60
2022-08-27T12:46:10.549Z,25.60
2022-08-27T12:48:42.295Z,25.40
2022-08-27T12:51:16.111Z,25.30
2022-08-27T12:53:57.236Z,25.20
2022-08-27T12:56:36.890Z,25.20
2022-08-27T12:59:29.672Z,25.20
2022-08-27T13:01:56.498Z,24.60
2022-08-27T13:04:26.274Z,24.30
2022-08-27T13:06:53.480Z,24.50
2022-08-27T13:09:33.244Z,24.30
2022-08-27T13:12:02.839Z,24.30
2022-08-27T13:14:37.739Z,24.50
2022-08-27T13:17:09.752Z,24.50
2022-08-27T13:19:44.356Z,24.40
2022-08-27T13:22:11.140Z,24.20
2022-08-27T13:24:49.767Z,24.10
2022-08-27T13:27:22.836Z,24.10
2022-08-27T13:29:49.682Z,24.00
2022-08-27T13:32:16.915Z,24.00
2022-08-27T13:34:43.948Z,24.20
2022-08-27T13:37:26.897Z,24.30
2022-08-27T13:39:55.828Z,24.40
2022-08-27T13:42:25.130Z,24.40
2022-08-27T13:45:00.110Z,24.30
2022-08-27T13:47:29.430Z,24.20
2022-08-27T13:50:10.563Z,24.20
2022-08-27T13:52:58.451Z,24.30
2022-08-27T13:55:25.640Z,24.40
2022-08-27T13:57:52.428Z,24.30
2022-08-27T14:00:33.587Z,24.10
2022-08-27T14:03:02.157Z,24.00
2022-08-27T14:05:33.733Z,24.00
2022-08-27T14:08:10.813Z,24.00
2022-08-27T14:10:41.746Z,24.10
2022-08-27T14:13:13.273Z,24.00
2022-08-27T14:15:43.417Z,24.00
2022-08-27T14:18:57.907Z,24.00
2022-08-27T14:21:21.874Z,24.10
2022-08-27T14:23:49.274Z,24.10
2022-08-27T14:26:17.281Z,23.90
2022-08-27T14:28:44.722Z,23.80
2022-08-27T14:31:12.117Z,23.80
2022-08-27T14:33:39.361Z,23.80
2022-08-27T14:36:07.590Z,23.90
2022-08-27T14:38:37.688Z,23.80
2022-08-27T14:41:08.176Z,23.90
2022-08-27T14:43:35.181Z,23.90
2022-08-27T14:46:02.981Z,24.00
2022-08-27T14:48:33.156Z,23.90
2022-08-27T14:51:02.891Z,24.10
2022-08-27T14:53:29.768Z,24.10
2022-08-27T14:55:58.835Z,24.10
2022-08-27T14:58:25.892Z,24.10
2022-08-27T15:00:55.218Z,24.20
2022-08-27T15:03:25.519Z,24.30
2022-08-27T15:05:54.879Z,24.30
2022-08-27T15:08:27.600Z,24.20
2022-08-27T15:10:57.882Z,24.10
2022-08-27T15:13:24.574Z,24.10
2022-08-27T15:15:52.313Z,23.90
2022-08-27T15:18:19.495Z,23.80
2022-08-27T15:20:46.630Z,23.70
2022-08-27T15:23:15.490Z,23.60
2022-08-27T15:25:44.545Z,23.30
2022-08-27T15:28:11.491Z,23.30
2022-08-27T15:30:38.653Z,23.20
2022-08-27T15:33:06.189Z,23.10
2022-08-27T15:35:33.771Z,23.20
2022-08-27T15:38:00.782Z,23.10
2022-08-27T15:40:30.729Z,23.20
2022-08-27T15:43:00.421Z,23.00
2022-08-27T15:45:27.660Z,22.80
2022-08-27T15:47:55.725Z,22.80
2022-08-27T15:50:22.478Z,22.80
2022-08-27T15:52:54.115Z,22.70
2022-08-27T15:55:26.424Z,22.70
2022-08-27T15:57:55.248Z,22.90
2022-08-27T16:00:23.035Z,22.90
2022-08-27T16:02:50.940Z,22.80
2022-08-27T16:05:18.915Z,22.60
2022-08-27T16:07:46.639Z,22.50
2022-08-27T16:10:14.533Z,22.60
2022-08-27T16:12:41.350Z,22.70
2022-08-27T16:15:08.744Z,22.60
2022-08-27T16:17:36.314Z,22.60
2022-08-27T16:20:04.686Z,22.50
2022-08-27T16:22:31.410Z,22.60
2022-08-27T16:24:58.096Z,22.60
2022-08-27T16:27:24.882Z,22.60
2022-08-27T16:29:51.592Z,22.50
2022-08-27T16:32:19.170Z,22.50
2022-08-27T16:34:47.531Z,22.60
2022-08-27T16:37:22.381Z,22.30
2022-08-27T16:39:49.283Z,22.00
2022-08-27T16:42:15.948Z,22.10
2022-08-27T16:44:42.672Z,22.00
2022-08-27T16:47:09.457Z,22.00
2022-08-27T16:49:55.127Z,21.90
2022-08-27T16:52:23.478Z,21.90
2022-08-27T16:54:51.433Z,22.10
2022-08-27T16:57:18.318Z,22.00
2022-08-27T16:59:45.011Z,22.00
2022-08-27T17:02:30.147Z,22.00
2022-08-27T17:05:07.360Z,21.90
2022-08-27T17:07:44.314Z,21.90
2022-08-27T17:10:17.227Z,22.10
2022-08-27T17:12:46.176Z,21.90
2022-08-27T17:15:14.422Z,21.70
2022-08-27T17:17:41.687Z,21.70
2022-08-27T17:20:08.610Z,21.60
2022-08-27T17:22:35.418Z,21.40
2022-08-27T17:25:02.181Z,21.20
2022-08-27T17:27:28.851Z,21.50
2022-08-27T17:29:55.601Z,21.50
2022-08-27T17:32:22.453Z,21.50
2022-08-27T17:34:49.304Z,21.50
2022-08-27T17:37:16.077Z,21.30
2022-08-27T17:39:45.607Z,21.20
2022-08-27T17:42:12.479Z,21.30
2022-08-27T17:44:39.476Z,21.50
2022-08-27T17:47:08.106Z,21.50
2022-08-27T17:49:35.472Z,21.30
2022-08-27T17:52:06.849Z,21.30
2022-08-27T17:54:42.525Z,21.40
2022-08-27T17:57:27.199Z,21.50
2022-08-27T17:59:55.097Z,21.30
2022-08-27T18:02:30.681Z,21.20
2022-08-27T18:04:57.524Z,21.10
2022-08-27T18:07:24.937Z,21.10
2022-08-27T18:09:51.748Z,21.10
2022-08-27T18:12:23.152Z,21.00
2022-08-27T18:15:14.452Z,21.10
2022-08-27T18:17:42.491Z,21.00
2022-08-27T18:20:13.093Z,20.90
2022-08-27T18:22:40.755Z,20.90
2022-08-27T18:25:08.466Z,20.90
2022-08-27T18:27:36.612Z,20.70
2022-08-27T18:30:05.348Z,20.60
2022-08-27T18:32:32.171Z,20.40
2022-08-27T18:35:03.084Z,20.40
2022-08-27T18:37:29.842Z,20.40
2022-08-27T18:39:56.585Z,20.40
2022-08-27T18:42:23.394Z,20.40
2022-08-27T18:44:50.273Z,20.40
2022-08-27T18:47:16.972Z,20.30
2022-08-27T18:49:43.642Z,20.40
2022-08-27T18:52:13.424Z,20.50
2022-08-27T18:54:42.191Z,20.50
2022-08-27T18:57:08.882Z,20.50
2022-08-27T18:59:35.590Z,20.40
2022-08-27T19:02:02.694Z,20.20
2022-08-27T19:04:33.081Z,20.10
2022-08-27T19:06:59.804Z,20.10
2022-08-27T19:09:27.040Z,20.20
2022-08-27T19:11:53.727Z,20.30
2022-08-27T19:14:20.417Z,20.50
2022-08-27T19:16:50.599Z,20.60
2022-08-27T19:19:18.200Z,20.70
2022-08-27T19:21:49.231Z,20.60
2022-08-27T19:24:19.003Z,20.70
2022-08-27T19:26:46.367Z,20.40
2022-08-27T19:29:13.146Z,20.40
2022-08-27T19:31:39.876Z,20.50
2022-08-27T19:34:08.240Z,20.60
2022-08-27T19:36:39.674Z,20.70
2022-08-27T19:39:06.854Z,20.70
2022-08-27T19:41:33.839Z,20.60
2022-08-27T19:44:00.643Z,20.60
2022-08-27T19:46:27.620Z,20.60
2022-08-27T19:48:55.380Z,20.50
2022-08-27T19:51:22.057Z,20.40
2022-08-27T19:53:48.783Z,20.40
2022-08-27T19:56:15.497Z,20.40
2022-08-27T19:58:43.491Z,20.50
2022-08-27T20:01:11.494Z,20.40
2022-08-27T20:03:38.687Z,20.30
2022-08-27T20:06:05.734Z,20.20
2022-08-27T20:08:32.409Z,20.20
2022-08-27T20:10:59.158Z,20.20
2022-08-27T20:13:28.879Z,20.30
2022-08-27T20:15:57.927Z,20.20
2022-08-27T20:18:24.791Z,20.10
2022-08-27T20:20:51.519Z,19.90
2022-08-27T20:23:18.542Z,19.90
2022-08-27T20:25:45.390Z,20.00
2022-08-27T20:28:37.733Z,20.10
2022-08-27T20:30:59.440Z,20.10
2022-08-27T20:33:26.953Z,20.10
2022-08-27T20:35:56.420Z,20.20
2022-08-27T20:38:23.430Z,20.10
2022-08-27T20:40:50.529Z,20.10
2022-08-27T20:43:18.709Z,20.10
2022-08-27T20:45:46.003Z,20.10
2022-08-27T20:48:13.233Z,20.20
2022-08-27T20:50:40.235Z,20.20
2022-08-27T20:53:06.971Z,20.10
2022-08-27T20:55:33.680Z,20.00
2022-08-27T20:58:19.198Z,20.00
2022-08-27T21:00:45.980Z,20.10
2022-08-27T21:03:14.010Z,20.00
2022-08-27T21:05:43.527Z,20.10
2022-08-27T21:08:10.366Z,20.10
2022-08-27T21:10:42.814Z,20.10
2022-08-27T21:13:12.354Z,20.10
2022-08-27T21:15:39.302Z,20.10
2022-08-27T21:18:06.758Z,20.10
2022-08-27T21:20:33.635Z,20.10
2022-08-27T21:23:00.752Z,20.00
2022-08-27T21:25:27.946Z,20.00
2022-08-27T21:27:56.910Z,20.20
2022-08-27T21:30:26.143Z,20.10
2022-08-27T21:32:56.729Z,20.10
2022-08-27T21:35:27.710Z,20.00
2022-08-27T21:37:55.809Z,20.10
2022-08-27T21:40:24.473Z,20.00
2022-08-27T21:42:52.664Z,19.80
2022-08-27T21:45:20.105Z,19.80
2022-08-27T21:47:47.301Z,20.00
2022-08-27T21:50:14.796Z,20.10
2022-08-27T21:52:41.516Z,20.10
2022-08-27T21:55:09.204Z,19.90
2022-08-27T21:57:36.303Z,19.80
2022-08-27T22:00:22.255Z,19.70
2022-08-27T22:02:49.752Z,19.90
2022-08-27T22:05:16.607Z,20.10
2022-08-27T22:07:43.437Z,19.80
2022-08-27T22:10:10.663Z,19.70
2022-08-27T22:12:37.397Z,19.60
2022-08-27T22:15:06.207Z,19.60
2022-08-27T22:17:32.886Z,19.60
2022-08-27T22:19:59.670Z,19.60
2022-08-27T22:22:30.751Z,19.70
2022-08-27T22:24:57.793Z,19.70
2022-08-27T22:27:24.627Z,19.80
2022-08-27T22:29:51.329Z,19.70
2022-08-27T22:32:18.083Z,19.60
2022-08-27T22:34:44.909Z,19.60
2022-08-27T22:37:11.669Z,19.70
2022-08-27T22:39:38.530Z,19.70
2022-08-27T22:42:05.834Z,19.60
2022-08-27T22:44:32.634Z,19.70
2022-08-27T22:46:59.441Z,19.80
2022-08-27T22:49:26.481Z,19.80
2022-08-27T22:51:53.197Z,19.80
2022-08-27T22:54:19.989Z,19.70
2022-08-27T22:56:46.726Z,19.70
2022-08-27T22:59:13.472Z,19.70
2022-08-27T23:01:41.318Z,19.60
2022-08-27T23:04:08.141Z,19.70
2022-08-27T23:06:35.249Z,19.60
2022-08-27T23:09:02.146Z,19.60
2022-08-27T23:11:31.834Z,19.90
2022-08-27T23:14:02.065Z,19.80
2022-08-27T23:16:31.172Z,19.70
2022-08-27T23:18:57.995Z,19.70
2022-08-27T23:21:24.787Z,19.60
2022-08-27T23:23:51.665Z,19.70
2022-08-27T23:26:37.083Z,19.70
2022-08-27T23:29:03.886Z,19.70
2022-08-27T23:31:31.077Z,19.70
2022-08-27T23:33:58.080Z,19.70
2022-08-27T23:36:24.892Z,19.60
2022-08-27T23:38:51.612Z,19.60
2022-08-27T23:41:18.682Z,19.70
2022-08-27T23:43:45.608Z,19.60
2022-08-27T23:46:13.295Z,19.60
2022-08-27T23:48:40.208Z,19.60
2022-08-27T23:51:08.698Z,19.70
2022-08-27T23:53:37.161Z,19.80
2022-08-27T23:56:04.801Z,19.60
2022-08-27T23:58:32.642Z,19.60
